createdAt,value
2022-12-16T00:02:20.947Z,61.75
2022-12-16T00:07:42.963Z,49.85
2022-12-16T00:13:09.071Z,57.42
2022-12-16T00:18:32.703Z,69.53
2022-12-16T00:23:55.618Z,66.78
2022-12-16T00:29:17.579Z,60.38
2022-12-16T00:34:39.384Z,69.38
2022-12-16T00:40:01.363Z,63.50
2022-12-16T00:45:23.285Z,66.50
2022-12-16T00:50:54.928Z,60.13
2022-12-16T00:56:17.409Z,62.70
2022-12-16T01:01:39.299Z,58.00
2022-12-16T01:07:01.261Z,67.38
2022-12-16T01:12:23.237Z,65.97
2022-12-16T01:17:46.590Z,68.00
2022-12-16T01:23:08.800Z,63.53
2022-12-16T01:28:30.796Z,66.72
2022-12-16T01:33:52.688Z,67.28
2022-12-16T01:39:14.612Z,72.47
2022-12-16T01:44:36.498Z,71.28
2022-12-16T01:50:15.113Z,66.97
2022-12-16T01:55:50.260Z,62.08
2022-12-16T02:01:13.410Z,61.70
2022-12-16T02:06:35.379Z,59.70
2022-12-16T02:12:32.420Z,56.80
2022-12-16T02:18:20.530Z,62.58
2022-12-16T02:24:14.620Z,65.90
2022-12-16T02:29:59.726Z,57.33
2022-12-16T02:35:32.604Z,58.13
2022-12-16T02:41:01.957Z,58.25
2022-12-16T02:46:27.542Z,60.28
2022-12-16T02:51:50.036Z,57.50
2022-12-16T02:57:17.802Z,61.70
2022-12-16T03:02:48.485Z,60.13
2022-12-16T03:08:18.112Z,55.22
2022-12-16T03:13:45.118Z,52.90
2022-12-16T03:19:09.251Z,51.83
2022-12-16T03:24:31.402Z,62.15
2022-12-16T03:30:06.365Z,52.33
2022-12-16T03:35:45.248Z,59.57
2022-12-16T03:41:08.177Z,63.35
2022-12-16T03:46:30.171Z,58.60
2022-12-16T03:51:54.576Z,56.15
2022-12-16T03:57:16.519Z,44.95
2022-12-16T04:02:38.886Z,50.83
2022-12-16T04:08:02.257Z,48.63
2022-12-16T04:13:24.313Z,61.67
2022-12-16T04:18:47.531Z,57.15
2022-12-16T04:24:16.702Z,61.65
2022-12-16T04:29:38.722Z,58.30
2022-12-16T04:35:00.572Z,37.00
2022-12-16T04:40:22.376Z,62.03
2022-12-16T04:45:46.954Z,65.25
2022-12-16T04:51:08.796Z,60.35
2022-12-16T04:56:30.643Z,58.75
2022-12-16T05:01:52.588Z,63.45
2022-12-16T05:07:14.643Z,61.20
2022-12-16T05:12:36.538Z,57.30
2022-12-16T05:17:58.328Z,62.30
2022-12-16T05:23:20.128Z,53.83
2022-12-16T05:28:42.049Z,64.15
2022-12-16T05:34:03.922Z,52.97
2022-12-16T05:39:25.755Z,62.95
2022-12-16T05:44:47.612Z,65.25
2022-12-16T05:50:09.540Z,66.45
2022-12-16T05:55:34.117Z,66.90
2022-12-16T06:00:56.248Z,68.65
2022-12-16T06:06:18.075Z,60.67
2022-12-16T06:11:39.920Z,69.15
2022-12-16T06:17:01.788Z,67.63
2022-12-16T06:22:23.639Z,66.57
2022-12-16T06:27:51.215Z,62.50
2022-12-16T06:33:13.102Z,61.47
2022-12-16T06:38:34.977Z,71.53
2022-12-16T06:43:56.854Z,70.38
2022-12-16T06:49:18.779Z,66.25
2022-12-16T06:54:40.605Z,70.70
2022-12-16T07:00:02.726Z,72.07
2022-12-16T07:05:24.559Z,72.75
2022-12-16T07:10:46.396Z,63.67
2022-12-16T07:16:08.407Z,63.95
2022-12-16T07:21:30.245Z,69.10
2022-12-16T07:26:52.269Z,63.03
2022-12-16T07:32:14.126Z,70.80
2022-12-16T07:37:38.683Z,66.38
2022-12-16T07:43:00.552Z,64.90
2022-12-16T07:48:22.450Z,72.13
2022-12-16T07:53:44.311Z,72.88
2022-12-16T07:59:06.137Z,73.90
2022-12-16T08:04:27.991Z,67.63
2022-12-16T08:09:49.829Z,69.30
2022-12-16T08:15:11.702Z,70.60
2022-12-16T08:20:33.781Z,69.55
2022-12-16T08:25:55.805Z,75.63
2022-12-16T08:31:17.800Z,61.20
2022-12-16T08:36:39.751Z,64.65
2022-12-16T08:42:01.620Z,62.95
2022-12-16T08:47:23.616Z,71.65
2022-12-16T08:52:45.556Z,70.20
2022-12-16T08:58:07.433Z,67.00
2022-12-16T09:03:29.426Z,65.93
2022-12-16T09:08:51.335Z,62.10
2022-12-16T09:14:13.206Z,69.25
2022-12-16T09:19:35.045Z,74.18
2022-12-16T09:24:56.903Z,71.10
2022-12-16T09:30:18.834Z,72.55
2022-12-16T09:35:40.723Z,67.95
2022-12-16T09:41:31.467Z,65.90
2022-12-16T09:47:08.541Z,53.80
2022-12-16T09:52:36.905Z,65.20
2022-12-16T09:57:58.892Z,66.88
2022-12-16T10:03:34.753Z,70.55
2022-12-16T10:09:02.371Z,66.97
2022-12-16T10:14:36.508Z,65.75
2022-12-16T10:20:16.548Z,65.60
2022-12-16T10:25:52.797Z,62.00
2022-12-16T10:31:17.950Z,62.17
2022-12-16T10:36:41.517Z,58.45
2022-12-16T10:42:04.464Z,65.07
2022-12-16T10:47:26.342Z,60.33
2022-12-16T10:52:56.502Z,64.35
2022-12-16T10:58:36.141Z,63.30
2022-12-16T11:03:58.051Z,57.17
2022-12-16T11:09:25.734Z,70.15
2022-12-16T11:15:27.023Z,63.85
2022-12-16T11:20:34.766Z,66.72
2022-12-16T11:26:17.643Z,71.03
2022-12-16T11:31:39.580Z,65.35
2022-12-16T11:37:02.258Z,67.15
2022-12-16T11:42:27.770Z,69.50
2022-12-16T11:48:07.759Z,53.87
2022-12-16T11:53:36.351Z,67.95
2022-12-16T11:59:04.569Z,68.30
2022-12-16T12:04:26.547Z,65.28
2022-12-16T12:10:02.420Z,71.20
2022-12-16T12:15:37.114Z,59.15
2022-12-16T12:21:24.702Z,57.63
2022-12-16T12:27:12.334Z,56.35
2022-12-16T12:32:47.385Z,62.75
2022-12-16T12:38:29.606Z,53.47
2022-12-16T12:44:06.352Z,55.95
2022-12-16T12:49:52.940Z,57.80
2022-12-16T12:55:28.687Z,54.10
2022-12-16T13:00:55.350Z,63.33
2022-12-16T13:06:18.963Z,57.70
2022-12-16T13:12:08.427Z,54.15
2022-12-16T13:17:57.341Z,55.38
2022-12-16T13:23:40.947Z,62.25
2022-12-16T13:29:24.262Z,55.80
2022-12-16T13:34:46.300Z,50.28
2022-12-16T13:40:25.367Z,49.47
2022-12-16T13:46:14.388Z,59.35
2022-12-16T13:51:38.957Z,54.25
2022-12-16T13:57:03.608Z,50.88
2022-12-16T14:02:40.574Z,53.70
2022-12-16T14:08:03.361Z,56.83
2022-12-16T14:13:49.955Z,58.08
2022-12-16T14:19:14.437Z,54.17
2022-12-16T14:24:38.570Z,60.72
2022-12-16T14:30:01.976Z,57.75
2022-12-16T14:35:26.385Z,58.22
2022-12-16T14:40:51.639Z,55.67
2022-12-16T14:46:31.678Z,56.90
2022-12-16T14:51:53.539Z,61.08
2022-12-16T14:57:27.333Z,57.20
2022-12-16T15:02:51.411Z,56.70
2022-12-16T15:08:13.704Z,65.00
2022-12-16T15:13:36.558Z,57.40
2022-12-16T15:19:01.367Z,58.28
2022-12-16T15:24:25.661Z,60.53
2022-12-16T15:29:47.523Z,60.88
2022-12-16T15:35:27.663Z,62.70
2022-12-16T15:40:51.309Z,60.40
2022-12-16T15:46:32.968Z,57.83
2022-12-16T15:51:54.824Z,48.30
2022-12-16T15:57:34.542Z,50.90
2022-12-16T16:02:56.496Z,51.47
2022-12-16T16:08:18.433Z,57.65
2022-12-16T16:13:41.611Z,50.67
2022-12-16T16:19:04.437Z,47.10
2022-12-16T16:24:26.275Z,50.15
2022-12-16T16:29:48.077Z,52.85
2022-12-16T16:35:09.918Z,48.70
2022-12-16T16:40:35.293Z,43.33
2022-12-16T16:45:57.567Z,47.77
2022-12-16T16:51:19.500Z,47.30
2022-12-16T16:56:41.476Z,47.33
2022-12-16T17:02:10.122Z,49.28
2022-12-16T17:07:32.053Z,51.72
2022-12-16T17:12:54.029Z,51.92
2022-12-16T17:18:16.076Z,52.22
2022-12-16T17:23:38.249Z,54.13
2022-12-16T17:29:00.111Z,53.35
2022-12-16T17:34:21.970Z,55.53
2022-12-16T17:39:43.767Z,44.28
2022-12-16T17:45:06.090Z,51.58
2022-12-16T17:50:27.920Z,51.28
2022-12-16T17:55:49.783Z,51.85
2022-12-16T18:01:11.628Z,47.83
2022-12-16T18:06:33.633Z,57.28
2022-12-16T18:11:55.506Z,55.20
2022-12-16T18:17:17.386Z,53.65
2022-12-16T18:22:39.272Z,55.63
2022-12-16T18:28:01.228Z,53.47
2022-12-16T18:33:23.060Z,56.15
2022-12-16T18:38:45.013Z,56.92
2022-12-16T18:44:10.306Z,50.15
2022-12-16T18:49:32.324Z,46.43
2022-12-16T18:54:54.329Z,55.05
2022-12-16T19:00:16.449Z,52.08
2022-12-16T19:05:38.368Z,53.03
2022-12-16T19:11:00.324Z,57.47
2022-12-16T19:16:22.509Z,47.95
2022-12-16T19:27:26.348Z,51.50
2022-12-16T19:32:48.817Z,58.22
2022-12-16T19:38:14.274Z,47.53
2022-12-16T19:43:36.155Z,48.80
2022-12-16T19:48:58.046Z,52.22
2022-12-16T19:54:19.932Z,51.08
2022-12-16T19:59:41.816Z,53.30
2022-12-16T20:05:03.932Z,50.38
2022-12-16T20:10:25.842Z,59.05
2022-12-16T20:15:47.730Z,57.67
2022-12-16T20:21:09.741Z,67.30
2022-12-16T20:26:31.658Z,66.32
2022-12-16T20:31:55.751Z,64.65
2022-12-16T20:37:17.866Z,60.60
2022-12-16T20:42:39.811Z,56.42
2022-12-16T20:48:02.580Z,59.88
2022-12-16T20:53:24.467Z,58.88
2022-12-16T20:58:46.305Z,60.10
2022-12-16T21:04:08.212Z,58.05
2022-12-16T21:09:31.493Z,53.80
2022-12-16T21:14:53.381Z,57.63
2022-12-16T21:20:15.642Z,62.40
2022-12-16T21:25:37.431Z,66.45
2022-12-16T21:30:59.673Z,62.50
2022-12-16T21:36:21.495Z,62.13
2022-12-16T21:41:43.461Z,63.88
2022-12-16T21:47:05.294Z,63.75
2022-12-16T21:52:27.175Z,67.82
2022-12-16T21:57:49.054Z,67.22
2022-12-16T22:03:10.913Z,62.28
2022-12-16T22:08:32.924Z,58.70
2022-12-16T22:13:54.874Z,60.20
2022-12-16T22:19:18.187Z,64.03
2022-12-16T22:24:40.041Z,58.67
2022-12-16T22:30:02.010Z,56.78
2022-12-16T22:35:23.910Z,56.92
2022-12-16T22:40:57.165Z,57.35
2022-12-16T22:46:19.127Z,58.80
2022-12-16T22:51:41.053Z,50.15
2022-12-16T22:57:02.870Z,56.30
2022-12-16T23:02:24.698Z,53.33
2022-12-16T23:07:46.753Z,49.80
2022-12-16T23:13:11.041Z,50.15
2022-12-16T23:18:32.885Z,48.97
2022-12-16T23:23:57.008Z,47.08
2022-12-16T23:29:19.080Z,51.03
2022-12-16T23:32:29.617Z,48.53
2022-12-16T23:34:45.713Z,47.72
2022-12-16T23:40:08.819Z,51.08
2022-12-16T23:45:31.994Z,52.88
2022-12-16T23:50:54.552Z,51.22
2022-12-16T23:56:18.201Z,51.35
